Time;durP1;ratioP1;P1;durP2;ratioP2;P2;SDS_P1;SDS_P2;PMS_P1;PMS_P2;Temp;Humidity;BMP_temperature;BMP_pressure;BME280_temperature;BME280_humidity;BME280_pressure;Samples;Min_cycle;Max_cycle;Signal;HPM_P1;HPM_P2
2021/04/27 00:01:34;;;;;;;4.87;2.57;;;;;;;7.43;40.50;95540.06;5097790;28;20403;-88
2021/04/27 00:04:01;;;;;;;6.77;2.70;;;;;;;7.37;40.88;95536.13;5096828;28;21030;-88
2021/04/27 00:06:28;;;;;;;5.40;2.70;;;;;;;7.29;41.11;95541.53;5097737;28;20432;-88
2021/04/27 00:08:54;;;;;;;5.17;2.40;;;;;;;7.26;40.90;95528.47;5096906;28;20430;-88
2021/04/27 00:11:20;;;;;;;4.13;2.40;;;;;;;7.27;41.04;95527.91;5100534;28;20452;-87
2021/04/27 00:13:46;;;;;;;2.93;2.23;;;;;;;7.17;41.47;95524.34;5096276;28;20443;-88
2021/04/27 00:16:12;;;;;;;4.60;2.70;;;;;;;7.14;41.63;95522.72;5102356;28;20434;-89
2021/04/27 00:18:38;;;;;;;3.37;2.60;;;;;;;7.08;42.21;95529.53;5117041;28;20421;-89
2021/04/27 00:21:05;;;;;;;3.93;2.80;;;;;;;7.05;42.16;95517.91;5116817;28;20503;-88
2021/04/27 00:23:32;;;;;;;3.73;2.90;;;;;;;6.99;42.23;95517.38;5117073;28;20496;-88
2021/04/27 00:25:58;;;;;;;4.97;3.07;;;;;;;7.02;42.06;95516.28;5106869;28;20919;-90
2021/04/27 00:28:24;;;;;;;5.77;2.70;;;;;;;6.92;42.77;95515.41;5099042;28;20485;-91
2021/04/27 00:30:51;;;;;;;3.80;2.33;;;;;;;6.90;42.59;95509.84;5098311;28;20503;-91
2021/04/27 00:33:17;;;;;;;4.07;2.50;;;;;;;6.78;42.99;95506.81;5097942;28;20963;-91
2021/04/27 00:35:43;;;;;;;8.23;2.63;;;;;;;6.80;43.28;95498.94;5098250;28;20439;-91
2021/04/27 00:38:10;;;;;;;3.33;2.53;;;;;;;6.75;43.71;95497.16;5098235;28;20492;-89
2021/04/27 00:40:37;;;;;;;4.53;2.47;;;;;;;6.74;43.41;95500.38;5102066;28;20506;-90
2021/04/27 00:43:03;;;;;;;4.33;2.73;;;;;;;6.75;44.01;95501.81;5102259;28;20425;-90
2021/04/27 00:45:30;;;;;;;5.50;3.07;;;;;;;6.69;43.50;95490.53;5102409;28;20479;-90
2021/04/27 00:47:57;;;;;;;8.57;2.57;;;;;;;6.64;43.90;95497.50;5102459;28;20463;-90
2021/04/27 00:50:26;;;;;;;4.60;2.33;;;;;;;6.62;43.43;95491.25;5101921;28;20425;-90
2021/04/27 00:52:54;;;;;;;5.87;3.23;;;;;;;6.65;44.15;95490.19;5102127;28;20446;-90
2021/04/27 00:55:21;;;;;;;2.77;2.43;;;;;;;6.62;44.19;95488.56;5101749;28;20428;-90
2021/04/27 00:57:48;;;;;;;3.67;2.10;;;;;;;6.52;44.33;95477.66;5102473;28;20411;-91
2021/04/27 01:00:18;;;;;;;5.47;2.97;;;;;;;6.55;44.42;95475.91;5101716;28;20419;-91
2021/04/27 01:02:44;;;;;;;3.83;2.43;;;;;;;6.50;44.28;95482.13;5101635;28;20436;-89
2021/04/27 01:05:13;;;;;;;4.87;2.60;;;;;;;6.54;44.81;95480.53;5100236;28;21010;-89
2021/04/27 01:07:48;;;;;;;3.70;2.83;;;;;;;6.50;44.34;95484.81;5100250;28;20484;-89
2021/04/27 01:10:17;;;;;;;4.40;2.77;;;;;;;6.36;45.00;95468.16;5100572;28;20383;-88
2021/04/27 01:12:49;;;;;;;4.70;2.70;;;;;;;6.33;45.33;95469.94;5100223;28;20508;-89
2021/04/27 01:15:20;;;;;;;4.50;2.47;;;;;;;6.28;45.22;95476.19;5101495;28;20502;-89
2021/04/27 01:17:49;;;;;;;10.20;3.13;;;;;;;6.26;45.07;95481.38;5101653;28;20444;-89
2021/04/27 01:20:19;;;;;;;4.30;2.80;;;;;;;6.28;45.52;95478.88;5100868;28;20456;-89
2021/04/27 01:22:58;;;;;;;2.60;2.40;;;;;;;6.22;45.92;95478.34;5100879;28;20783;-89
2021/04/27 01:25:30;;;;;;;8.23;2.47;;;;;;;6.30;45.63;95467.63;5100896;28;20432;-89
2021/04/27 01:27:57;;;;;;;2.60;2.40;;;;;;;6.17;46.21;95467.78;5101540;28;20468;-89
2021/04/27 01:30:24;;;;;;;5.30;2.87;;;;;;;6.09;46.29;95465.06;5101467;28;20490;-89
2021/04/27 01:32:51;;;;;;;3.33;2.70;;;;;;;6.11;46.07;95470.59;5101297;28;20423;-89
2021/04/27 01:35:19;;;;;;;3.97;2.70;;;;;;;6.04;46.64;95460.59;5099561;28;20437;-89
2021/04/27 01:37:45;;;;;;;3.83;2.67;;;;;;;6.06;46.73;95454.72;5100086;28;20489;-88
2021/04/27 01:40:12;;;;;;;6.70;2.73;;;;;;;5.96;46.81;95454.50;5100555;28;20471;-88
2021/04/27 01:42:38;;;;;;;3.40;2.50;;;;;;;6.01;47.01;95458.28;5100220;28;20528;-87
2021/04/27 01:45:08;;;;;;;3.60;2.40;;;;;;;6.00;47.20;95452.19;5099954;28;20415;-87
2021/04/27 01:47:34;;;;;;;6.57;2.93;;;;;;;5.99;47.26;95453.44;5099492;28;20797;-88
2021/04/27 01:50:01;;;;;;;5.03;2.83;;;;;;;6.01;47.31;95453.66;5099452;28;20881;-88
2021/04/27 01:52:28;;;;;;;6.97;3.10;;;;;;;5.96;46.80;95451.09;5099837;28;20457;-88
2021/04/27 01:54:54;;;;;;;4.57;3.00;;;;;;;5.88;47.62;95451.09;5099586;28;20935;-88
2021/04/27 01:57:21;;;;;;;5.97;2.90;;;;;;;5.74;47.97;95447.09;5099216;28;20781;-90
2021/04/27 01:59:47;;;;;;;5.47;2.93;;;;;;;5.73;48.26;95443.69;5092421;28;20506;-90
2021/04/27 02:02:16;;;;;;;7.90;3.00;;;;;;;5.74;47.69;95441.72;5100751;28;20426;-87
2021/04/27 02:04:42;;;;;;;6.50;3.77;;;;;;;5.58;48.46;95438.28;5100039;28;20464;-87
2021/04/27 02:07:08;;;;;;;6.43;2.50;;;;;;;5.49;48.50;95433.44;5099604;28;20825;-87
2021/04/27 02:09:34;;;;;;;5.07;3.40;;;;;;;5.56;48.77;95432.75;5099569;28;20976;-87
2021/04/27 02:12:00;;;;;;;3.70;2.67;;;;;;;5.50;49.00;95431.47;5099577;28;20425;-87
2021/04/27 02:14:29;;;;;;;6.30;2.87;;;;;;;5.49;48.88;95430.75;5099749;28;20936;-89
2021/04/27 02:17:01;;;;;;;7.53;3.90;;;;;;;5.51;48.99;95427.56;5100093;28;20453;-90
2021/04/27 02:19:30;;;;;;;7.60;3.27;;;;;;;5.45;48.99;95427.69;5100297;28;20520;-89
2021/04/27 02:22:00;;;;;;;4.30;3.20;;;;;;;5.39;49.66;95427.13;5100192;28;20456;-90
2021/04/27 02:24:26;;;;;;;4.83;3.30;;;;;;;5.44;49.26;95425.56;5100285;28;20444;-90
2021/04/27 02:26:53;;;;;;;4.80;2.70;;;;;;;5.52;49.43;95423.63;5100928;28;20518;-91
2021/04/27 02:29:20;;;;;;;5.27;3.13;;;;;;;5.59;49.26;95423.66;5110997;28;20407;-87
2021/04/27 02:31:47;;;;;;;4.63;2.83;;;;;;;5.52;49.47;95426.28;5119938;28;20513;-88
2021/04/27 02:34:14;;;;;;;6.20;3.00;;;;;;;5.40;49.90;95418.59;5115158;28;21020;-90
2021/04/27 02:36:41;;;;;;;4.43;3.00;;;;;;;5.40;49.57;95420.53;5100195;28;20442;-86
2021/04/27 02:39:09;;;;;;;7.43;2.93;;;;;;;5.35;49.69;95427.50;5098945;28;20435;-87
2021/04/27 02:41:37;;;;;;;6.90;2.67;;;;;;;5.27;50.53;95417.97;5099190;28;20429;-86
2021/04/27 02:44:06;;;;;;;6.53;2.57;;;;;;;5.29;50.28;95418.88;5107288;28;20500;-91
2021/04/27 02:46:32;;;;;;;3.80;2.97;;;;;;;5.25;50.37;95410.50;5120254;28;21408;-91
2021/04/27 02:48:58;;;;;;;5.47;3.30;;;;;;;5.25;50.65;95407.81;5119954;28;20460;-90
2021/04/27 02:51:25;;;;;;;9.73;3.10;;;;;;;5.23;50.43;95410.28;5099328;28;20446;-87
2021/04/27 02:53:52;;;;;;;11.07;3.20;;;;;;;5.25;50.69;95401.75;5078852;28;20441;-87
2021/04/27 02:56:21;;;;;;;11.20;3.47;;;;;;;5.29;50.68;95402.16;5078484;28;20896;-88
2021/04/27 02:58:47;;;;;;;6.50;3.60;;;;;;;5.15;51.12;95392.78;5078733;28;20437;-87
2021/04/27 03:01:13;;;;;;;7.20;3.33;;;;;;;5.21;51.09;95388.72;5078047;28;20429;-87
2021/04/27 03:03:39;;;;;;;12.80;3.73;;;;;;;5.25;51.18;95394.47;5078107;28;20449;-87
2021/04/27 03:06:05;;;;;;;8.40;3.33;;;;;;;5.22;51.01;95387.50;5078327;28;20473;-88
2021/04/27 03:08:32;;;;;;;6.40;3.17;;;;;;;5.04;51.64;95391.16;5078385;28;20563;-89
2021/04/27 03:10:59;;;;;;;6.53;3.70;;;;;;;5.10;51.75;95391.00;5078769;28;20503;-89
2021/04/27 03:13:25;;;;;;;4.37;3.40;;;;;;;5.03;51.88;95389.72;5078695;28;20549;-89
2021/04/27 03:15:52;;;;;;;5.70;3.20;;;;;;;4.97;51.80;95389.13;5090193;28;20485;-88
2021/04/27 03:18:18;;;;;;;4.23;2.70;;;;;;;5.01;52.13;95388.81;5097443;28;20497;-89
2021/04/27 03:20:44;;;;;;;4.50;3.00;;;;;;;5.03;51.88;95395.06;5096971;28;20462;-89
2021/04/27 03:23:11;;;;;;;4.77;3.03;;;;;;;5.14;51.84;95391.34;5098692;28;20483;-88
2021/04/27 03:25:37;;;;;;;5.00;2.80;;;;;;;5.14;52.20;95396.69;5089188;28;20541;-87
2021/04/27 03:28:05;;;;;;;4.07;2.73;;;;;;;5.07;51.92;95387.41;5098062;28;20543;-89
2021/04/27 03:30:31;;;;;;;7.40;3.37;;;;;;;5.07;52.28;95392.03;5099018;28;20483;-90
2021/04/27 03:32:58;;;;;;;5.20;3.10;;;;;;;5.19;51.93;95395.84;5098454;28;20510;-91
2021/04/27 03:35:24;;;;;;;12.33;4.30;;;;;;;5.11;52.08;95393.13;5098901;28;20429;-92
2021/04/27 03:37:51;;;;;;;5.30;3.57;;;;;;;5.01;52.42;95394.16;5097899;28;20499;-89
2021/04/27 03:40:17;;;;;;;9.03;3.50;;;;;;;5.00;52.80;95395.38;5079005;28;20408;-88
2021/04/27 03:42:43;;;;;;;6.83;3.47;;;;;;;5.06;52.19;95391.31;5078429;28;20484;-89
2021/04/27 03:45:13;;;;;;;9.53;3.10;;;;;;;4.98;52.97;95395.91;5078394;28;20842;-90
2021/04/27 03:47:40;;;;;;;5.17;2.77;;;;;;;5.06;52.77;95395.94;5078908;28;20485;-90
2021/04/27 03:50:08;;;;;;;3.93;2.60;;;;;;;5.02;52.51;95393.63;5078008;28;20442;-88
2021/04/27 03:52:34;;;;;;;9.03;3.37;;;;;;;4.85;53.16;95399.38;5077693;28;20429;-88
2021/04/27 03:55:01;;;;;;;7.10;3.20;;;;;;;4.94;53.07;95387.53;5078291;28;20454;-88
2021/04/27 03:57:27;;;;;;;4.90;2.90;;;;;;;5.06;52.69;95391.31;5078125;28;20512;-88
2021/04/27 03:59:53;;;;;;;4.93;3.40;;;;;;;4.98;52.83;95387.88;5078972;28;20513;-88
2021/04/27 04:02:20;;;;;;;5.57;4.13;;;;;;;4.97;52.89;95391.81;5078152;28;20463;-88
2021/04/27 04:04:46;;;;;;;4.47;3.07;;;;;;;4.94;53.44;95384.84;5079610;28;20940;-89
2021/04/27 04:07:14;;;;;;;4.00;2.77;;;;;;;4.93;53.44;95378.06;5079267;28;20485;-88
2021/04/27 04:09:40;;;;;;;7.27;3.03;;;;;;;4.86;54.02;95389.41;5079218;28;20545;-88
2021/04/27 04:12:07;;;;;;;4.83;3.20;;;;;;;4.89;53.55;95390.34;5078026;28;20443;-88
2021/04/27 04:14:33;;;;;;;7.30;3.70;;;;;;;4.86;53.99;95381.41;5077130;28;20509;-88
2021/04/27 04:16:59;;;;;;;8.20;3.40;;;;;;;4.81;54.02;95392.97;5079172;28;20446;-87
2021/04/27 04:19:27;;;;;;;5.30;3.13;;;;;;;4.80;54.18;95378.88;5079209;28;20834;-89
2021/04/27 04:21:53;;;;;;;5.03;2.97;;;;;;;4.77;54.60;95387.22;5079526;28;20451;-89
2021/04/27 04:24:19;;;;;;;2.70;2.40;;;;;;;4.76;54.74;95388.47;5078595;28;20488;-89
2021/04/27 04:26:45;;;;;;;8.70;3.00;;;;;;;4.70;54.83;95390.56;5079017;28;20489;-90
2021/04/27 04:29:11;;;;;;;6.43;3.33;;;;;;;4.65;55.48;95394.09;5078800;28;20581;-89
2021/04/27 04:31:37;;;;;;;6.70;3.43;;;;;;;4.67;55.06;95404.97;5078112;28;20463;-88
2021/04/27 04:34:04;;;;;;;7.43;3.60;;;;;;;4.59;55.79;95394.22;5078566;28;20816;-89
2021/04/27 04:36:31;;;;;;;6.83;3.60;;;;;;;4.53;55.95;95400.94;5078184;28;20450;-88
2021/04/27 04:38:57;;;;;;;10.07;2.97;;;;;;;4.65;55.95;95404.78;5078873;28;20477;-88
2021/04/27 04:41:23;;;;;;;7.50;3.10;;;;;;;4.75;55.40;95392.38;5079476;28;20507;-88
2021/04/27 04:43:49;;;;;;;5.33;3.30;;;;;;;4.90;54.86;95397.81;5078789;28;20453;-88
2021/04/27 04:46:15;;;;;;;7.57;3.77;;;;;;;4.84;55.08;95392.63;5079104;28;20488;-88
2021/04/27 04:48:41;;;;;;;15.30;3.30;;;;;;;4.90;54.73;95394.44;5078452;28;20480;-90
2021/04/27 04:51:07;;;;;;;6.47;3.30;;;;;;;4.93;54.85;95399.44;5079330;28;20448;-89
2021/04/27 04:53:34;;;;;;;5.87;3.77;;;;;;;4.96;55.11;95395.72;5078043;28;20422;-89
2021/04/27 04:56:00;;;;;;;11.37;3.33;;;;;;;4.88;55.24;95396.91;5078345;28;20596;-89
2021/04/27 04:58:27;;;;;;;9.43;4.40;;;;;;;5.11;55.12;95395.06;5079381;28;20478;-89
2021/04/27 05:00:53;;;;;;;6.90;3.40;;;;;;;5.49;54.13;95397.94;5089253;28;20464;-90
2021/04/27 05:03:19;;;;;;;6.43;4.00;;;;;;;5.91;52.53;95399.91;5099110;28;20499;-88
2021/04/27 05:05:45;;;;;;;8.63;3.50;;;;;;;5.88;52.47;95394.88;5098603;28;20451;-87
2021/04/27 05:08:13;;;;;;;6.57;3.07;;;;;;;5.79;52.70;95403.41;5097845;28;20483;-88
2021/04/27 05:10:40;;;;;;;8.10;3.53;;;;;;;5.68;53.12;95409.06;5098996;28;20455;-88
2021/04/27 05:13:07;;;;;;;6.90;3.40;;;;;;;5.70;52.94;95407.28;5099698;28;20527;-88
2021/04/27 05:15:33;;;;;;;8.73;3.70;;;;;;;5.77;53.35;95408.56;5098818;28;20535;-88
2021/04/27 05:18:04;;;;;;;5.50;3.70;;;;;;;5.86;52.52;95406.09;5100073;28;20471;-89
2021/04/27 05:20:30;;;;;;;5.43;3.33;;;;;;;6.15;52.29;95409.38;5100298;28;20480;-87
2021/04/27 05:22:56;;;;;;;4.20;3.30;;;;;;;6.14;51.50;95413.31;5098247;28;20415;-88
2021/04/27 05:25:22;;;;;;;6.00;3.40;;;;;;;5.95;52.57;95420.97;5100153;28;20918;-88
2021/04/27 05:27:49;;;;;;;5.60;3.30;;;;;;;6.07;51.81;95403.31;5103170;28;20500;-88
2021/04/27 05:30:16;;;;;;;8.50;3.87;;;;;;;6.23;51.74;95412.81;5104966;28;20418;-89
2021/04/27 05:32:43;;;;;;;4.97;3.17;;;;;;;6.18;51.94;95416.34;5103160;28;20436;-87
2021/04/27 05:35:10;;;;;;;10.30;3.70;;;;;;;6.51;51.54;95411.94;5108743;28;20423;-89
2021/04/27 05:37:36;;;;;;;7.17;4.07;;;;;;;6.44;51.18;95415.31;5102420;28;20431;-89
2021/04/27 05:40:04;;;;;;;6.17;4.23;;;;;;;6.74;50.91;95420.66;5101730;28;20523;-90
2021/04/27 05:42:30;;;;;;;6.70;4.00;;;;;;;7.04;49.90;95414.56;5101545;28;20472;-89
2021/04/27 05:44:57;;;;;;;10.30;4.57;;;;;;;7.16;49.36;95418.31;5101592;28;20941;-89
2021/04/27 05:47:23;;;;;;;5.07;3.40;;;;;;;7.69;48.46;95422.78;5102246;28;20580;-89
2021/04/27 05:49:49;;;;;;;7.73;3.80;;;;;;;8.10;47.05;95422.22;5101647;28;20512;-88
2021/04/27 05:52:15;;;;;;;5.80;2.83;;;;;;;8.56;46.58;95426.06;5102348;28;20512;-91
2021/04/27 05:54:42;;;;;;;3.83;3.33;;;;;;;8.87;45.62;95417.75;5104633;28;20396;-93
2021/04/27 05:57:08;;;;;;;11.10;4.40;;;;;;;8.95;44.71;95413.75;5103838;28;20615;-91
2021/04/27 05:59:40;;;;;;;10.43;4.13;;;;;;;9.50;44.09;95418.75;5103182;28;20446;-90
2021/04/27 06:02:08;;;;;;;6.67;4.20;;;;;;;9.29;43.91;95413.06;5104200;28;20415;-93
2021/04/27 06:04:34;;;;;;;7.10;3.80;;;;;;;9.82;42.90;95400.97;5102435;28;20475;-89
2021/04/27 06:07:03;;;;;;;16.53;4.20;;;;;;;9.85;42.99;95410.63;5104402;28;20543;-93
2021/04/27 06:09:30;;;;;;;7.40;4.30;;;;;;;9.61;43.18;95412.88;5107433;28;20494;-93
2021/04/27 06:11:58;;;;;;;7.00;4.10;;;;;;;10.00;42.36;95419.22;5108325;28;20560;-92
2021/04/27 06:14:25;;;;;;;13.03;4.40;;;;;;;10.48;42.26;95414.09;5105125;28;20415;-91
2021/04/27 06:16:53;;;;;;;6.80;3.77;;;;;;;10.42;41.91;95421.75;5116361;28;20471;-93
2021/04/27 06:19:22;;;;;;;6.07;4.53;;;;;;;10.54;41.14;95411.84;5119953;28;20483;-92
2021/04/27 06:21:49;;;;;;;5.17;3.50;;;;;;;10.55;41.38;95413.28;5119147;28;20418;-92
2021/04/27 06:24:17;;;;;;;8.93;5.30;;;;;;;10.77;41.74;95418.88;5118283;28;20424;-95
2021/04/27 06:26:45;;;;;;;8.47;5.00;;;;;;;10.68;41.12;95410.19;5106621;28;20440;-93
2021/04/27 06:29:13;;;;;;;7.07;4.10;;;;;;;11.29;39.94;95411.84;5108934;28;20539;-94
2021/04/27 06:31:41;;;;;;;7.43;4.47;;;;;;;11.16;40.39;95409.56;5116501;28;20416;-93
2021/04/27 06:34:10;;;;;;;10.20;5.00;;;;;;;11.56;39.40;95411.72;5115840;28;20888;-93
2021/04/27 06:36:37;;;;;;;8.00;5.03;;;;;;;11.33;40.09;95406.75;5114594;28;20456;-93
2021/04/27 06:39:07;;;;;;;11.17;6.03;;;;;;;11.90;39.04;95411.44;5109067;28;20472;-94
2021/04/27 06:41:34;;;;;;;15.83;5.70;;;;;;;12.08;38.85;95412.69;5109277;28;20406;-94
2021/04/27 06:44:01;;;;;;;12.50;5.33;;;;;;;12.27;38.18;95409.22;5103369;28;20448;-91
2021/04/27 06:46:27;;;;;;;7.60;4.73;;;;;;;11.64;39.22;95407.59;5104418;28;20528;-93
2021/04/27 06:48:56;;;;;;;7.13;4.47;;;;;;;12.05;38.22;95413.09;5106280;28;20536;-92
2021/04/27 06:51:24;;;;;;;7.97;5.33;;;;;;;11.97;38.62;95407.13;5104857;28;20464;-92
2021/04/27 06:53:54;;;;;;;7.10;5.00;;;;;;;12.09;38.57;95410.69;5104339;28;20429;-92
2021/04/27 06:56:20;;;;;;;9.17;5.40;;;;;;;11.66;39.22;95407.72;5103798;28;20518;-92
2021/04/27 06:58:48;;;;;;;15.07;6.13;;;;;;;12.02;38.62;95416.97;5104082;28;20417;-91
2021/04/27 07:01:15;;;;;;;10.80;5.87;;;;;;;12.09;38.35;95416.78;5105685;28;20476;-90
2021/04/27 07:03:43;;;;;;;14.93;6.30;;;;;;;11.96;38.80;95411.84;5104329;28;20441;-94
2021/04/27 07:06:09;;;;;;;6.67;5.40;;;;;;;12.25;37.98;95409.06;5111021;28;20471;-93
2021/04/27 07:08:36;;;;;;;6.43;4.90;;;;;;;12.38;37.89;95413.28;5105030;28;20458;-92
2021/04/27 07:11:06;;;;;;;8.73;5.97;;;;;;;12.45;37.98;95409.72;5108637;28;20460;-94
2021/04/27 07:13:33;;;;;;;9.77;5.73;;;;;;;12.23;38.21;95406.22;5104953;28;20450;-93
2021/04/27 07:16:02;;;;;;;9.47;5.57;;;;;;;12.22;38.24;95402.81;5106494;28;20446;-91
2021/04/27 07:18:29;;;;;;;11.80;5.73;;;;;;;12.30;38.11;95402.66;5108400;28;20790;-93
2021/04/27 07:21:29;;;;;;;5.30;4.27;;;;;;;12.55;37.81;95404.97;5106292;28;20444;-94
2021/04/27 07:24:13;;;;;;;;;;;;;;;;;;;;;
2021/04/27 07:26:45;;;;;;;8.23;6.00;;;;;;;13.40;36.86;95417.34;5106834;28;20463;-91
2021/04/27 07:29:15;;;;;;;7.80;5.67;;;;;;;13.54;36.13;95414.78;5110345;28;20486;-92
2021/04/27 07:31:54;;;;;;;12.57;6.37;;;;;;;13.71;36.12;95411.81;5110921;28;20455;-94
2021/04/27 07:34:24;;;;;;;9.77;5.43;;;;;;;13.59;36.07;95411.06;5116599;28;20479;-95
2021/04/27 07:37:14;;;;;;;7.27;5.43;;;;;;;14.10;35.41;95406.72;5102614;28;20456;-92
2021/04/27 07:39:40;;;;;;;8.10;5.60;;;;;;;13.78;35.69;95416.28;5105678;28;20515;-93
2021/04/27 07:42:14;;;;;;;7.70;5.37;;;;;;;13.94;35.83;95414.59;5105976;28;20436;-92
2021/04/27 07:44:57;;;;;;;9.90;5.70;;;;;;;13.52;36.30;95419.38;5107487;28;20459;-93
2021/04/27 07:47:23;;;;;;;9.17;5.80;;;;;;;13.67;36.08;95411.56;5103646;28;20495;-92
2021/04/27 07:49:55;;;;;;;10.00;5.30;;;;;;;14.35;35.29;95420.47;5103981;28;20463;-92
2021/04/27 07:52:37;;;;;;;12.60;5.57;;;;;;;14.72;34.52;95411.78;5110186;28;20437;-92
2021/04/27 07:55:08;;;;;;;7.10;5.77;;;;;;;14.50;34.63;95419.31;5111080;28;20456;-91
2021/04/27 07:57:45;;;;;;;;;;;;;;;;;;;;;
2021/04/27 08:00:44;;;;;;;8.30;5.67;;;;;;;13.95;35.18;95424.16;5104031;28;20495;-94
2021/04/27 08:06:15;;;;;;;10.53;6.10;;;;;;;14.07;35.34;95416.03;5098784;28;20984;-93
2021/04/27 08:08:42;;;;;;;8.87;5.97;;;;;;;14.31;35.09;95417.50;5109056;28;20455;-89
2021/04/27 08:11:08;;;;;;;10.93;6.90;;;;;;;13.85;36.27;95414.66;5108593;28;20441;-89
2021/04/27 08:13:38;;;;;;;8.43;5.60;;;;;;;13.52;36.35;95411.25;5105634;28;20440;-92
2021/04/27 08:16:13;;;;;;;10.40;5.80;;;;;;;13.73;36.41;95409.22;5106301;28;20500;-92
2021/04/27 08:18:50;;;;;;;6.63;5.10;;;;;;;14.21;35.30;95414.19;5107002;28;20416;-91
2021/04/27 08:21:26;;;;;;;7.83;5.90;;;;;;;14.00;35.94;95413.56;5105577;28;20933;-93
2021/04/27 08:23:58;;;;;;;11.20;5.90;;;;;;;14.14;35.69;95411.69;5105079;28;20451;-93
2021/04/27 08:26:28;;;;;;;10.47;5.67;;;;;;;14.15;35.38;95419.25;5104421;28;20469;-91
2021/04/27 08:28:55;;;;;;;15.83;6.50;;;;;;;14.08;36.22;95419.47;5104707;28;20482;-88
2021/04/27 08:31:21;;;;;;;7.93;6.03;;;;;;;14.40;35.92;95419.44;5103063;28;20483;-92
2021/04/27 08:33:48;;;;;;;12.53;6.20;;;;;;;13.94;35.98;95408.44;5101937;28;20441;-92
2021/04/27 08:36:15;;;;;;;11.83;5.80;;;;;;;13.28;37.60;95419.25;5105311;28;20483;-94
2021/04/27 08:38:47;;;;;;;10.77;6.50;;;;;;;13.57;37.05;95421.03;5107685;28;20440;-92
2021/04/27 08:41:15;;;;;;;15.57;6.27;;;;;;;13.73;36.37;95411.94;5107766;28;20456;-91
2021/04/27 08:43:42;;;;;;;7.67;5.57;;;;;;;13.66;36.82;95417.53;5111074;28;20501;-91
2021/04/27 08:46:10;;;;;;;7.30;6.00;;;;;;;13.39;37.48;95415.91;5104667;28;20457;-92
2021/04/27 08:48:52;;;;;;;7.97;6.50;;;;;;;13.01;38.04;95410.00;5104030;28;20495;-90
2021/04/27 08:51:18;;;;;;;8.90;5.70;;;;;;;12.92;38.59;95406.06;5105671;28;20420;-90
2021/04/27 08:53:44;;;;;;;10.83;6.10;;;;;;;12.89;38.57;95407.94;5100545;28;20799;-93
2021/04/27 08:56:17;;;;;;;19.60;8.40;;;;;;;12.78;38.80;95403.13;5103380;28;20470;-91
2021/04/27 08:58:45;;;;;;;9.83;6.63;;;;;;;12.93;38.64;95404.06;5098666;28;20459;-86
2021/04/27 09:01:12;;;;;;;9.50;7.53;;;;;;;12.64;39.41;95406.94;5101654;28;20471;-87
2021/04/27 09:04:13;;;;;;;11.17;6.73;;;;;;;12.52;39.95;95400.72;5119865;28;20437;-87
2021/04/27 09:06:39;;;;;;;8.17;5.87;;;;;;;12.57;39.63;95396.97;5121231;28;20460;-91
2021/04/27 09:09:07;;;;;;;12.50;6.60;;;;;;;12.88;39.01;95397.69;5117428;28;20515;-94
2021/04/27 09:11:35;;;;;;;14.13;7.67;;;;;;;12.99;39.06;95399.06;5112576;28;20372;-93
2021/04/27 09:14:09;;;;;;;9.10;7.13;;;;;;;13.02;39.35;95392.47;5119024;28;20443;-86
2021/04/27 09:16:36;;;;;;;23.53;7.23;;;;;;;12.79;39.79;95393.03;5120679;28;20482;-88
2021/04/27 09:19:03;;;;;;;8.77;7.50;;;;;;;12.60;39.77;95396.53;5121072;28;20415;-89
2021/04/27 09:21:35;;;;;;;11.20;6.67;;;;;;;12.66;39.33;95391.53;5102066;28;20445;-92
2021/04/27 09:24:12;;;;;;;15.10;8.27;;;;;;;12.22;40.61;95388.56;5086613;28;20477;-90
2021/04/27 09:26:40;;;;;;;12.53;7.87;;;;;;;12.28;40.95;95386.25;5089193;28;20460;-90
2021/04/27 09:29:09;;;;;;;11.90;7.90;;;;;;;12.61;40.37;95389.13;5092306;28;21125;-92
2021/04/27 09:31:41;;;;;;;13.97;7.63;;;;;;;12.89;39.36;95393.69;5114339;28;20448;-91
2021/04/27 09:34:31;;;;;;;10.13;7.60;;;;;;;13.19;38.65;95390.22;5102287;28;20427;-92
2021/04/27 09:37:00;;;;;;;14.17;9.07;;;;;;;12.70;40.37;95386.38;5084448;28;20449;-89
2021/04/27 09:47:57;;;;;;;17.17;8.10;;;;;;;13.35;39.27;95380.44;5071352;28;20493;-94
2021/04/27 09:50:26;;;;;;;10.10;7.37;;;;;;;13.11;39.93;95380.88;5070354;28;20411;-92
2021/04/27 09:52:52;;;;;;;15.63;8.93;;;;;;;13.27;39.55;95379.22;5066758;28;20425;-90
2021/04/27 09:55:21;;;;;;;11.70;7.97;;;;;;;13.46;38.70;95373.66;5068706;28;20483;-93
2021/04/27 09:57:49;;;;;;;20.90;7.57;;;;;;;13.35;38.88;95383.13;5073874;28;20818;-94
2021/04/27 10:00:28;;;;;;;15.53;9.83;;;;;;;13.35;38.90;95361.47;5064907;28;20504;-91
2021/04/27 10:02:58;;;;;;;9.63;7.53;;;;;;;13.23;39.14;95368.13;5063366;28;20915;-91
2021/04/27 10:05:25;;;;;;;10.33;7.47;;;;;;;13.37;39.02;95361.56;5062918;28;20474;-92
2021/04/27 10:07:52;;;;;;;11.33;7.20;;;;;;;13.30;39.55;95372.63;5062398;28;20562;-91
2021/04/27 10:10:19;;;;;;;14.23;7.87;;;;;;;13.27;39.08;95363.66;5061830;28;20466;-91
2021/04/27 10:12:47;;;;;;;11.43;8.30;;;;;;;13.42;38.96;95362.53;5062141;28;20440;-91
2021/04/27 10:15:15;;;;;;;13.80;8.47;;;;;;;13.26;39.36;95358.81;5066596;28;20450;-91
2021/04/27 10:17:42;;;;;;;13.17;8.60;;;;;;;13.53;39.54;95356.47;5067328;28;20493;-90
2021/04/27 10:20:13;;;;;;;11.60;7.40;;;;;;;13.60;38.96;95357.53;5067720;28;20510;-91
2021/04/27 10:22:41;;;;;;;14.57;8.53;;;;;;;13.83;38.96;95346.75;5063859;28;20534;-90
2021/04/27 10:25:12;;;;;;;13.60;8.00;;;;;;;13.80;38.84;95348.66;5062280;28;20433;-89
2021/04/27 10:27:38;;;;;;;16.20;8.77;;;;;;;14.09;38.21;95345.63;5061917;28;20527;-91
2021/04/27 10:30:27;;;;;;;14.77;8.70;;;;;;;14.15;37.89;95353.41;5066851;28;20433;-90
2021/04/27 10:33:11;;;;;;;12.10;8.03;;;;;;;13.94;38.42;95351.47;5063262;28;20516;-90
2021/04/27 10:35:39;;;;;;;12.90;7.63;;;;;;;14.06;38.07;95340.66;5064497;28;20542;-92
2021/04/27 10:38:07;;;;;;;16.03;9.23;;;;;;;14.54;37.13;95329.97;5068716;28;20450;-89
2021/04/27 10:40:53;;;;;;;11.60;8.70;;;;;;;14.50;37.48;95329.03;5067299;28;20450;-89
2021/04/27 10:43:53;;;;;;;11.47;8.13;;;;;;;14.62;36.81;95324.28;5072945;28;20437;-88
2021/04/27 10:46:55;;;;;;;15.60;9.90;;;;;;;14.80;37.08;95317.16;5064295;28;20502;-88
2021/04/27 10:49:30;;;;;;;10.67;8.27;;;;;;;14.76;36.63;95314.94;5066275;28;20486;-89
2021/04/27 10:51:59;;;;;;;12.10;8.40;;;;;;;14.51;35.37;95312.13;5066550;28;20440;-91
2021/04/27 10:54:30;;;;;;;9.37;8.10;;;;;;;14.59;36.06;95301.75;5072998;28;20414;-90
2021/04/27 10:57:12;;;;;;;14.93;9.70;;;;;;;14.85;34.96;95299.78;5074072;28;20441;-90
2021/04/27 10:59:59;;;;;;;12.00;8.37;;;;;;;14.73;35.62;95299.81;5062129;28;20425;-91
2021/04/27 11:02:28;;;;;;;14.40;9.57;;;;;;;15.17;34.87;95300.88;5063143;28;20454;-90
2021/04/27 11:04:58;;;;;;;18.40;8.53;;;;;;;15.08;34.17;95301.75;5063767;28;20469;-91
2021/04/27 11:07:36;;;;;;;12.90;8.73;;;;;;;15.10;34.37;95304.59;5067051;28;20462;-89
2021/04/27 11:10:30;;;;;;;12.47;8.60;;;;;;;15.23;34.24;95298.50;5058671;28;20459;-88
2021/04/27 11:12:58;;;;;;;18.20;9.60;;;;;;;15.33;34.55;95291.59;5058092;28;20867;-88
2021/04/27 11:15:27;;;;;;;14.77;8.90;;;;;;;15.32;34.39;95289.47;5063654;28;21073;-90
2021/04/27 11:18:02;;;;;;;11.07;8.90;;;;;;;15.31;34.28;95290.78;5071455;28;20478;-86
2021/04/27 11:20:55;;;;;;;18.10;10.20;;;;;;;15.09;34.97;95284.84;5079347;28;20456;-86
2021/04/27 11:23:37;;;;;;;16.23;9.83;;;;;;;15.45;34.16;95284.09;5079021;28;20464;-89
2021/04/27 11:26:24;;;;;;;13.97;9.17;;;;;;;15.14;34.40;95289.19;5079358;28;20438;-89
2021/04/27 11:28:52;;;;;;;15.07;9.60;;;;;;;14.99;34.48;95282.28;5078787;28;20537;-89
2021/04/27 11:36:47;;;;;;;21.73;9.40;;;;;;;15.23;34.69;95276.75;5070763;28;20528;-89
2021/04/27 11:39:15;;;;;;;13.40;9.80;;;;;;;15.06;33.66;95282.63;5063150;28;20435;-90
2021/04/27 11:41:46;;;;;;;16.70;10.03;;;;;;;15.23;33.21;95276.75;5059970;28;20533;-90
2021/04/27 11:44:12;;;;;;;11.50;8.87;;;;;;;15.54;33.60;95271.66;5058375;28;20542;-89
2021/04/27 11:46:55;;;;;;;12.80;9.40;;;;;;;15.90;33.18;95270.13;5056963;28;20990;-88
2021/04/27 11:49:22;;;;;;;16.50;9.70;;;;;;;15.95;33.17;95274.47;5063119;28;20464;-89
2021/04/27 11:51:48;;;;;;;16.60;9.83;;;;;;;15.84;32.45;95270.53;5062548;28;20512;-89
2021/04/27 11:54:19;;;;;;;15.47;9.03;;;;;;;15.90;32.93;95259.97;5061147;28;20466;-90
2021/04/27 11:56:47;;;;;;;24.37;9.93;;;;;;;16.21;32.43;95256.03;5059334;28;20560;-88
2021/04/27 11:59:18;;;;;;;13.83;9.47;;;;;;;16.48;32.47;95266.91;5058498;28;20446;-89
2021/04/27 12:01:44;;;;;;;11.33;9.00;;;;;;;16.41;32.33;95267.94;5064452;28;20529;-89
2021/04/27 12:04:11;;;;;;;15.83;9.43;;;;;;;16.49;31.95;95258.16;5073788;28;20472;-87